sensor_id;sensor_type;location;lat;lon;timestamp;pressure;altitude;pressure_sealevel;temperature;humidity
26531;BME280;14201;43.188;24.160;2024-01-15T00:01:33;99086.63;;;-0.66;71.20
26531;BME280;14201;43.188;24.160;2024-01-15T00:03:59;99068.47;;;-0.69;71.37
26531;BME280;14201;43.188;24.160;2024-01-15T00:06:25;99075.84;;;-0.62;71.17
26531;BME280;14201;43.188;24.160;2024-01-15T00:08:52;99078.88;;;-0.55;70.91
26531;BME280;14201;43.188;24.160;2024-01-15T00:11:18;99052.47;;;-0.66;70.36
26531;BME280;14201;43.188;24.160;2024-01-15T00:13:43;99077.44;;;-0.52;70.52
26531;BME280;14201;43.188;24.160;2024-01-15T00:16:09;99078.88;;;-0.55;69.95
26531;BME280;14201;43.188;24.160;2024-01-15T00:18:35;99073.09;;;-0.53;70.19
26531;BME280;14201;43.188;24.160;2024-01-15T00:21:01;99069.66;;;-0.53;69.30
26531;BME280;14201;43.188;24.160;2024-01-15T00:23:27;99073.94;;;-0.64;68.12
26531;BME280;14201;43.188;24.160;2024-01-15T00:25:53;99083.34;;;-0.75;68.31
26531;BME280;14201;43.188;24.160;2024-01-15T00:28:18;99077.94;;;-0.90;69.38
26531;BME280;14201;43.188;24.160;2024-01-15T00:30:44;99059.78;;;-1.15;70.34
26531;BME280;14201;43.188;24.160;2024-01-15T00:33:09;99058.38;;;-1.44;71.69
26531;BME280;14201;43.188;24.160;2024-01-15T00:35:37;99062.59;;;-1.44;71.92
26531;BME280;14201;43.188;24.160;2024-01-15T00:38:03;99058.97;;;-1.36;72.12
26531;BME280;14201;43.188;24.160;2024-01-15T00:40:29;99048.16;;;-1.33;72.72
26531;BME280;14201;43.188;24.160;2024-01-15T00:42:54;99054.38;;;-1.30;72.20
26531;BME280;14201;43.188;24.160;2024-01-15T00:45:20;99051.94;;;-1.28;72.91
26531;BME280;14201;43.188;24.160;2024-01-15T00:47:46;99049.38;;;-1.28;72.72
26531;BME280;14201;43.188;24.160;2024-01-15T00:50:12;99047.47;;;-1.31;73.35
26531;BME280;14201;43.188;24.160;2024-01-15T00:52:37;99050.28;;;-1.28;72.83
26531;BME280;14201;43.188;24.160;2024-01-15T00:55:03;99050.63;;;-1.23;72.94
26531;BME280;14201;43.188;24.160;2024-01-15T00:57:29;99044.88;;;-1.21;72.47
26531;BME280;14201;43.188;24.160;2024-01-15T00:59:55;99042.44;;;-1.19;72.30
26531;BME280;14201;43.188;24.160;2024-01-15T01:02:20;99039.53;;;-1.24;71.80
26531;BME280;14201;43.188;24.160;2024-01-15T01:04:46;99041.84;;;-1.27;71.74
26531;BME280;14201;43.188;24.160;2024-01-15T01:07:12;99037.41;;;-1.29;71.62
26531;BME280;14201;43.188;24.160;2024-01-15T01:09:37;99044.94;;;-1.31;72.07
26531;BME280;14201;43.188;24.160;2024-01-15T01:12:03;99042.66;;;-1.38;72.60
26531;BME280;14201;43.188;24.160;2024-01-15T01:14:29;99042.09;;;-1.56;72.90
26531;BME280;14201;43.188;24.160;2024-01-15T01:16:54;99041.94;;;-1.47;73.13
26531;BME280;14201;43.188;24.160;2024-01-15T01:19:20;99008.91;;;-1.56;72.43
26531;BME280;14201;43.188;24.160;2024-01-15T01:21:45;99039.41;;;-1.47;72.83
26531;BME280;14201;43.188;24.160;2024-01-15T01:24:11;99038.59;;;-1.46;72.74
26531;BME280;14201;43.188;24.160;2024-01-15T01:26:37;99038.88;;;-1.53;72.77
26531;BME280;14201;43.188;24.160;2024-01-15T01:29:02;99034.19;;;-1.59;73.21
26531;BME280;14201;43.188;24.160;2024-01-15T01:31:28;99041.56;;;-1.52;72.86
26531;BME280;14201;43.188;24.160;2024-01-15T01:33:56;99029.06;;;-1.59;73.36
26531;BME280;14201;43.188;24.160;2024-01-15T01:36:22;99036.59;;;-1.50;73.48
26531;BME280;14201;43.188;24.160;2024-01-15T01:38:48;99028.13;;;-1.49;73.36
26531;BME280;14201;43.188;24.160;2024-01-15T01:41:13;99029.31;;;-1.56;73.94
26531;BME280;14201;43.188;24.160;2024-01-15T01:43:39;99032.22;;;-1.51;73.48
26531;BME280;14201;43.188;24.160;2024-01-15T01:46:05;99026.91;;;-1.54;73.73
26531;BME280;14201;43.188;24.160;2024-01-15T01:48:31;99026.16;;;-1.64;73.93
26531;BME280;14201;43.188;24.160;2024-01-15T01:50:58;99020.00;;;-1.88;75.00
26531;BME280;14201;43.188;24.160;2024-01-15T01:53:26;99029.28;;;-1.78;75.34
26531;BME280;14201;43.188;24.160;2024-01-15T01:55:52;99028.91;;;-1.72;74.95
26531;BME280;14201;43.188;24.160;2024-01-15T01:58:19;99024.72;;;-1.82;75.61
26531;BME280;14201;43.188;24.160;2024-01-15T02:00:46;99018.25;;;-1.99;76.04
26531;BME280;14201;43.188;24.160;2024-01-15T02:03:12;99016.59;;;-2.09;75.75
26531;BME280;14201;43.188;24.160;2024-01-15T02:05:39;99012.78;;;-2.14;76.47
26531;BME280;14201;43.188;24.160;2024-01-15T02:08:05;99016.84;;;-1.95;76.71
26531;BME280;14201;43.188;24.160;2024-01-15T02:10:31;99007.84;;;-1.80;75.61
26531;BME280;14201;43.188;24.160;2024-01-15T02:12:57;99001.84;;;-1.81;76.21
26531;BME280;14201;43.188;24.160;2024-01-15T02:15:23;99004.81;;;-1.96;77.30
26531;BME280;14201;43.188;24.160;2024-01-15T02:20:27;98988.31;;;-2.22;78.42
26531;BME280;14201;43.188;24.160;2024-01-15T02:22:52;98981.66;;;-2.10;77.93
26531;BME280;14201;43.188;24.160;2024-01-15T02:25:19;98992.25;;;-2.15;78.36
26531;BME280;14201;43.188;24.160;2024-01-15T02:27:45;98984.53;;;-1.95;77.82
26531;BME280;14201;43.188;24.160;2024-01-15T02:30:12;98972.81;;;-1.93;77.82
26531;BME280;14201;43.188;24.160;2024-01-15T02:32:38;98976.31;;;-1.81;77.76
26531;BME280;14201;43.188;24.160;2024-01-15T02:35:04;98958.59;;;-1.79;77.22
26531;BME280;14201;43.188;24.160;2024-01-15T02:37:30;98967.72;;;-1.71;76.94
26531;BME280;14201;43.188;24.160;2024-01-15T02:39:55;98958.53;;;-1.69;76.48
26531;BME280;14201;43.188;24.160;2024-01-15T02:42:21;98956.38;;;-1.64;76.67
26531;BME280;14201;43.188;24.160;2024-01-15T02:44:47;98951.97;;;-1.55;76.83
26531;BME280;14201;43.188;24.160;2024-01-15T02:47:14;98953.69;;;-1.44;76.42
26531;BME280;14201;43.188;24.160;2024-01-15T02:49:40;98943.66;;;-1.52;77.02
26531;BME280;14201;43.188;24.160;2024-01-15T02:52:06;98946.75;;;-1.56;77.71
26531;BME280;14201;43.188;24.160;2024-01-15T02:54:31;98941.44;;;-1.48;77.07
26531;BME280;14201;43.188;24.160;2024-01-15T02:56:57;98934.59;;;-1.49;76.80
26531;BME280;14201;43.188;24.160;2024-01-15T02:59:22;98937.25;;;-1.47;77.03
26531;BME280;14201;43.188;24.160;2024-01-15T03:01:48;98934.72;;;-1.47;76.64
26531;BME280;14201;43.188;24.160;2024-01-15T03:04:14;98926.25;;;-1.46;77.10
26531;BME280;14201;43.188;24.160;2024-01-15T03:06:39;98925.53;;;-1.55;77.10
26531;BME280;14201;43.188;24.160;2024-01-15T03:09:05;98922.16;;;-1.44;77.50
26531;BME280;14201;43.188;24.160;2024-01-15T03:11:40;98925.19;;;-1.38;77.24
26531;BME280;14201;43.188;24.160;2024-01-15T03:14:06;98921.69;;;-1.50;77.35
26531;BME280;14201;43.188;24.160;2024-01-15T03:16:32;98911.22;;;-1.53;77.87
26531;BME280;14201;43.188;24.160;2024-01-15T03:18:57;98917.53;;;-1.38;77.00
26531;BME280;14201;43.188;24.160;2024-01-15T03:21:23;98913.97;;;-1.40;77.33
26531;BME280;14201;43.188;24.160;2024-01-15T03:23:49;98913.38;;;-1.48;78.54
26531;BME280;14201;43.188;24.160;2024-01-15T03:26:14;98909.75;;;-1.40;77.15
26531;BME280;14201;43.188;24.160;2024-01-15T03:28:40;98895.91;;;-1.53;77.87
26531;BME280;14201;43.188;24.160;2024-01-15T03:31:07;98910.41;;;-1.42;78.29
26531;BME280;14201;43.188;24.160;2024-01-15T03:33:33;98897.56;;;-1.32;77.72
26531;BME280;14201;43.188;24.160;2024-01-15T03:36:01;98889.38;;;-1.28;77.32
26531;BME280;14201;43.188;24.160;2024-01-15T03:38:29;98894.41;;;-1.17;77.76
26531;BME280;14201;43.188;24.160;2024-01-15T03:40:55;98890.88;;;-1.08;77.78
26531;BME280;14201;43.188;24.160;2024-01-15T03:43:21;98891.75;;;-1.07;77.86
26531;BME280;14201;43.188;24.160;2024-01-15T03:45:46;98889.91;;;-0.98;76.37
26531;BME280;14201;43.188;24.160;2024-01-15T03:48:12;98891.03;;;-0.94;77.10
26531;BME280;14201;43.188;24.160;2024-01-15T03:50:38;98894.16;;;-0.87;77.22
26531;BME280;14201;43.188;24.160;2024-01-15T03:53:03;98885.38;;;-0.78;76.53
26531;BME280;14201;43.188;24.160;2024-01-15T03:55:29;98882.94;;;-0.77;76.28
26531;BME280;14201;43.188;24.160;2024-01-15T03:57:54;98885.28;;;-0.68;76.04
26531;BME280;14201;43.188;24.160;2024-01-15T04:00:20;98892.94;;;-0.68;76.81
26531;BME280;14201;43.188;24.160;2024-01-15T04:02:46;98879.28;;;-0.69;76.93
26531;BME280;14201;43.188;24.160;2024-01-15T04:05:11;98878.41;;;-0.69;77.16
26531;BME280;14201;43.188;24.160;2024-01-15T04:07:37;98877.06;;;-0.64;77.64
26531;BME280;14201;43.188;24.160;2024-01-15T04:10:03;98869.84;;;-0.58;77.52
26531;BME280;14201;43.188;24.160;2024-01-15T04:12:29;98872.84;;;-0.52;77.62
26531;BME280;14201;43.188;24.160;2024-01-15T04:14:54;98863.50;;;-0.40;77.08
26531;BME280;14201;43.188;24.160;2024-01-15T04:17:20;98863.06;;;-0.34;76.44
26531;BME280;14201;43.188;24.160;2024-01-15T04:19:47;98869.06;;;-0.33;76.87
26531;BME280;14201;43.188;24.160;2024-01-15T04:22:13;98872.41;;;-0.34;76.96
26531;BME280;14201;43.188;24.160;2024-01-15T04:24:39;98876.28;;;-0.40;76.21
26531;BME280;14201;43.188;24.160;2024-01-15T04:27:05;98874.09;;;-0.35;75.12
26531;BME280;14201;43.188;24.160;2024-01-15T04:29:31;98846.03;;;-0.45;74.13
26531;BME280;14201;43.188;24.160;2024-01-15T04:31:57;98868.63;;;-0.28;74.03
26531;BME280;14201;43.188;24.160;2024-01-15T04:34:22;98866.84;;;-0.29;75.32
26531;BME280;14201;43.188;24.160;2024-01-15T04:36:48;98869.06;;;-0.33;74.33
26531;BME280;14201;43.188;24.160;2024-01-15T04:39:14;98857.94;;;-0.34;75.18
26531;BME280;14201;43.188;24.160;2024-01-15T04:41:39;98861.50;;;-0.32;74.93
26531;BME280;14201;43.188;24.160;2024-01-15T04:44:05;98864.19;;;-0.30;74.81
26531;BME280;14201;43.188;24.160;2024-01-15T04:46:31;98854.28;;;-0.37;74.56
26531;BME280;14201;43.188;24.160;2024-01-15T04:48:56;98855.50;;;-0.32;73.69
26531;BME280;14201;43.188;24.160;2024-01-15T04:51:22;98849.97;;;-0.38;74.43
26531;BME280;14201;43.188;24.160;2024-01-15T04:53:48;98855.84;;;-0.40;75.12
26531;BME280;14201;43.188;24.160;2024-01-15T04:56:13;98845.28;;;-0.44;74.21
26531;BME280;14201;43.188;24.160;2024-01-15T04:58:39;98854.38;;;-0.36;73.88
26531;BME280;14201;43.188;24.160;2024-01-15T05:01:04;98858.75;;;-0.35;73.37
26531;BME280;14201;43.188;24.160;2024-01-15T05:03:30;98857.63;;;-0.50;73.82
26531;BME280;14201;43.188;24.160;2024-01-15T05:05:56;98841.28;;;-0.52;74.61
26531;BME280;14201;43.188;24.160;2024-01-15T05:08:21;98841.50;;;-0.49;75.27
26531;BME280;14201;43.188;24.160;2024-01-15T05:10:47;98836.81;;;-0.55;75.68
26531;BME280;14201;43.188;24.160;2024-01-15T05:13:13;98837.69;;;-0.54;76.61
26531;BME280;14201;43.188;24.160;2024-01-15T05:15:39;98828.81;;;-0.48;77.34
26531;BME280;14201;43.188;24.160;2024-01-15T05:18:05;98828.81;;;-0.36;78.03
26531;BME280;14201;43.188;24.160;2024-01-15T05:20:31;98832.91;;;-0.26;78.42
26531;BME280;14201;43.188;24.160;2024-01-15T05:22:57;98828.03;;;-0.23;77.92
26531;BME280;14201;43.188;24.160;2024-01-15T05:25:22;98832.34;;;-0.22;78.29
26531;BME280;14201;43.188;24.160;2024-01-15T05:27:48;98834.91;;;-0.22;77.97
26531;BME280;14201;43.188;24.160;2024-01-15T05:30:14;98832.00;;;-0.15;78.04
26531;BME280;14201;43.188;24.160;2024-01-15T05:32:40;98823.66;;;-0.12;77.76
26531;BME280;14201;43.188;24.160;2024-01-15T05:35:06;98826.31;;;-0.11;77.91
26531;BME280;14201;43.188;24.160;2024-01-15T05:37:31;98813.97;;;-0.05;77.93
26531;BME280;14201;43.188;24.160;2024-01-15T05:39:57;98819.50;;;0.02;77.73
26531;BME280;14201;43.188;24.160;2024-01-15T05:42:23;98826.94;;;0.10;77.43
26531;BME280;14201;43.188;24.160;2024-01-15T05:44:48;98812.47;;;0.11;77.29
26531;BME280;14201;43.188;24.160;2024-01-15T05:47:14;98811.13;;;0.16;76.86
26531;BME280;14201;43.188;24.160;2024-01-15T05:49:40;98811.53;;;0.22;76.30
26531;BME280;14201;43.188;24.160;2024-01-15T05:52:08;98807.00;;;0.18;76.17
26531;BME280;14201;43.188;24.160;2024-01-15T05:54:34;98801.88;;;0.18;76.18
26531;BME280;14201;43.188;24.160;2024-01-15T05:56:59;98802.00;;;0.19;76.08
26531;BME280;14201;43.188;24.160;2024-01-15T05:59:25;98787.75;;;0.11;76.65
26531;BME280;14201;43.188;24.160;2024-01-15T06:01:51;98796.66;;;0.16;76.93
26531;BME280;14201;43.188;24.160;2024-01-15T06:04:16;98795.31;;;0.22;76.76
26531;BME280;14201;43.188;24.160;2024-01-15T06:06:42;98794.63;;;0.24;76.24
26531;BME280;14201;43.188;24.160;2024-01-15T06:09:08;98791.06;;;0.22;76.25
26531;BME280;14201;43.188;24.160;2024-01-15T06:11:34;98799.38;;;0.31;75.57
26531;BME280;14201;43.188;24.160;2024-01-15T06:14:00;98795.25;;;0.33;75.05
26531;BME280;14201;43.188;24.160;2024-01-15T06:16:26;98800.22;;;0.44;75.85
26531;BME280;14201;43.188;24.160;2024-01-15T06:18:51;98796.50;;;0.52;76.09
26531;BME280;14201;43.188;24.160;2024-01-15T06:21:17;98794.78;;;0.64;76.33
26531;BME280;14201;43.188;24.160;2024-01-15T06:23:43;98801.47;;;0.75;76.31
26531;BME280;14201;43.188;24.160;2024-01-15T06:26:11;98807.44;;;0.88;76.01
26531;BME280;14201;43.188;24.160;2024-01-15T06:28:37;98807.50;;;1.14;75.16
26531;BME280;14201;43.188;24.160;2024-01-15T06:31:02;98798.72;;;1.24;75.51
26531;BME280;14201;43.188;24.160;2024-01-15T06:33:28;98793.28;;;1.46;74.92
26531;BME280;14201;43.188;24.160;2024-01-15T06:35:54;98794.44;;;1.65;76.11
26531;BME280;14201;43.188;24.160;2024-01-15T06:38:20;98782.41;;;1.77;74.17
26531;BME280;14201;43.188;24.160;2024-01-15T06:40:46;98798.94;;;1.95;72.63
26531;BME280;14201;43.188;24.160;2024-01-15T06:43:14;98793.78;;;2.09;73.09
26531;BME280;14201;43.188;24.160;2024-01-15T06:45:40;98792.84;;;2.22;71.94
26531;BME280;14201;43.188;24.160;2024-01-15T06:48:06;98778.69;;;2.28;71.61
26531;BME280;14201;43.188;24.160;2024-01-15T06:50:33;98779.06;;;2.34;72.11
26531;BME280;14201;43.188;24.160;2024-01-15T06:52:58;98779.00;;;2.33;71.36
26531;BME280;14201;43.188;24.160;2024-01-15T06:55:24;98777.03;;;2.44;70.94
26531;BME280;14201;43.188;24.160;2024-01-15T06:57:53;98776.63;;;2.51;71.05
26531;BME280;14201;43.188;24.160;2024-01-15T07:00:19;98781.19;;;2.70;71.10
26531;BME280;14201;43.188;24.160;2024-01-15T07:02:45;98782.41;;;2.76;70.60
26531;BME280;14201;43.188;24.160;2024-01-15T07:05:11;98781.44;;;2.74;70.47
26531;BME280;14201;43.188;24.160;2024-01-15T07:07:37;98783.91;;;2.73;71.05
26531;BME280;14201;43.188;24.160;2024-01-15T07:10:04;98776.72;;;2.67;71.45
26531;BME280;14201;43.188;24.160;2024-01-15T07:12:30;98779.13;;;2.64;70.61
26531;BME280;14201;43.188;24.160;2024-01-15T07:14:56;98776.31;;;2.74;70.91
26531;BME280;14201;43.188;24.160;2024-01-15T07:17:22;98786.38;;;2.71;73.07
26531;BME280;14201;43.188;24.160;2024-01-15T07:19:48;98786.78;;;2.78;75.52
26531;BME280;14201;43.188;24.160;2024-01-15T07:22:14;98789.78;;;3.15;76.88
26531;BME280;14201;43.188;24.160;2024-01-15T07:24:43;98782.69;;;3.26;75.62
26531;BME280;14201;43.188;24.160;2024-01-15T07:27:09;98786.00;;;3.54;72.85
26531;BME280;14201;43.188;24.160;2024-01-15T07:29:35;98765.19;;;3.66;72.79
26531;BME280;14201;43.188;24.160;2024-01-15T07:32:04;98775.31;;;3.78;72.07
26531;BME280;14201;43.188;24.160;2024-01-15T07:34:30;98762.59;;;3.81;69.35
26531;BME280;14201;43.188;24.160;2024-01-15T07:36:57;98775.50;;;3.98;69.55
26531;BME280;14201;43.188;24.160;2024-01-15T07:39:23;98763.50;;;3.98;68.16
26531;BME280;14201;43.188;24.160;2024-01-15T07:41:50;98765.66;;;4.07;68.38
26531;BME280;14201;43.188;24.160;2024-01-15T07:44:16;98756.97;;;4.05;70.78
26531;BME280;14201;43.188;24.160;2024-01-15T07:46:46;98767.44;;;4.24;71.77
26531;BME280;14201;43.188;24.160;2024-01-15T07:49:12;98768.19;;;4.22;72.53
26531;BME280;14201;43.188;24.160;2024-01-15T07:51:38;98756.66;;;4.31;71.07
26531;BME280;14201;43.188;24.160;2024-01-15T07:54:06;98768.81;;;4.34;70.79
26531;BME280;14201;43.188;24.160;2024-01-15T07:56:32;98762.97;;;4.37;71.17
26531;BME280;14201;43.188;24.160;2024-01-15T07:58:58;98755.16;;;4.35;72.26
26531;BME280;14201;43.188;24.160;2024-01-15T08:01:24;98766.81;;;4.45;72.52
26531;BME280;14201;43.188;24.160;2024-01-15T08:03:50;98766.56;;;4.57;71.75
26531;BME280;14201;43.188;24.160;2024-01-15T08:06:16;98757.59;;;4.66;70.81
26531;BME280;14201;43.188;24.160;2024-01-15T08:08:41;98759.41;;;4.67;71.31
26531;BME280;14201;43.188;24.160;2024-01-15T08:11:07;98755.81;;;4.82;70.99
26531;BME280;14201;43.188;24.160;2024-01-15T08:13:33;98750.00;;;4.86;71.00
26531;BME280;14201;43.188;24.160;2024-01-15T08:15:58;98737.00;;;4.84;71.71
26531;BME280;14201;43.188;24.160;2024-01-15T08:18:24;98752.88;;;4.92;71.37
26531;BME280;14201;43.188;24.160;2024-01-15T08:20:50;98755.63;;;4.79;71.73
26531;BME280;14201;43.188;24.160;2024-01-15T08:23:17;98737.44;;;4.76;72.66
26531;BME280;14201;43.188;24.160;2024-01-15T08:25:43;98745.03;;;4.72;73.12
26531;BME280;14201;43.188;24.160;2024-01-15T08:28:08;98737.59;;;4.79;72.62
26531;BME280;14201;43.188;24.160;2024-01-15T08:30:34;98736.31;;;4.87;74.94
26531;BME280;14201;43.188;24.160;2024-01-15T08:33:00;98739.97;;;4.92;73.47
26531;BME280;14201;43.188;24.160;2024-01-15T08:35:26;98728.66;;;5.06;73.85
26531;BME280;14201;43.188;24.160;2024-01-15T08:37:52;98728.88;;;5.11;73.31
26531;BME280;14201;43.188;24.160;2024-01-15T08:40:18;98702.31;;;5.13;74.54
26531;BME280;14201;43.188;24.160;2024-01-15T08:42:44;98713.59;;;5.16;75.38
26531;BME280;14201;43.188;24.160;2024-01-15T08:45:11;98710.66;;;5.26;73.65
26531;BME280;14201;43.188;24.160;2024-01-15T08:47:37;98703.50;;;5.38;73.55
26531;BME280;14201;43.188;24.160;2024-01-15T08:50:03;98689.84;;;5.59;73.79
26531;BME280;14201;43.188;24.160;2024-01-15T08:52:29;98687.88;;;5.72;74.98
26531;BME280;14201;43.188;24.160;2024-01-15T08:54:57;98677.97;;;5.82;75.28
26531;BME280;14201;43.188;24.160;2024-01-15T08:57:23;98677.78;;;5.97;72.75
26531;BME280;14201;43.188;24.160;2024-01-15T08:59:49;98665.41;;;6.28;72.13
26531;BME280;14201;43.188;24.160;2024-01-15T09:02:14;98661.09;;;6.69;69.07
26531;BME280;14201;43.188;24.160;2024-01-15T09:04:41;98660.00;;;7.06;65.96
26531;BME280;14201;43.188;24.160;2024-01-15T09:07:07;98646.72;;;7.42;64.76
26531;BME280;14201;43.188;24.160;2024-01-15T09:09:32;98641.53;;;7.65;60.18
26531;BME280;14201;43.188;24.160;2024-01-15T09:11:59;98643.13;;;7.84;61.20
26531;BME280;14201;43.188;24.160;2024-01-15T09:14:24;98649.94;;;8.06;59.63
26531;BME280;14201;43.188;24.160;2024-01-15T09:16:52;98648.19;;;8.29;55.00
26531;BME280;14201;43.188;24.160;2024-01-15T09:19:18;98634.66;;;8.38;53.77
26531;BME280;14201;43.188;24.160;2024-01-15T09:21:44;98633.59;;;8.33;52.88
26531;BME280;14201;43.188;24.160;2024-01-15T09:24:09;98628.53;;;8.36;52.90
26531;BME280;14201;43.188;24.160;2024-01-15T09:26:35;98626.09;;;8.40;51.92
26531;BME280;14201;43.188;24.160;2024-01-15T09:29:00;98623.78;;;8.48;52.98
26531;BME280;14201;43.188;24.160;2024-01-15T09:31:26;98620.47;;;8.52;54.18
26531;BME280;14201;43.188;24.160;2024-01-15T09:33:52;98606.94;;;8.62;53.47
26531;BME280;14201;43.188;24.160;2024-01-15T09:36:21;98595.94;;;8.70;53.14
26531;BME280;14201;43.188;24.160;2024-01-15T09:38:47;98588.34;;;8.76;53.07
26531;BME280;14201;43.188;24.160;2024-01-15T09:41:13;98579.25;;;8.89;52.31
26531;BME280;14201;43.188;24.160;2024-01-15T09:43:38;98560.91;;;8.84;52.52
26531;BME280;14201;43.188;24.160;2024-01-15T09:46:04;98564.47;;;8.86;52.52
26531;BME280;14201;43.188;24.160;2024-01-15T09:48:29;98561.22;;;8.93;53.55
26531;BME280;14201;43.188;24.160;2024-01-15T09:50:55;98554.50;;;9.00;55.02
26531;BME280;14201;43.188;24.160;2024-01-15T09:53:23;98551.94;;;9.01;52.03
26531;BME280;14201;43.188;24.160;2024-01-15T09:55:50;98544.53;;;9.14;51.72
26531;BME280;14201;43.188;24.160;2024-01-15T09:58:16;98544.75;;;9.21;51.83
26531;BME280;14201;43.188;24.160;2024-01-15T10:00:42;98545.88;;;9.30;51.70
26531;BME280;14201;43.188;24.160;2024-01-15T10:03:09;98523.41;;;9.32;51.52
26531;BME280;14201;43.188;24.160;2024-01-15T10:05:37;98530.09;;;9.54;51.02
26531;BME280;14201;43.188;24.160;2024-01-15T10:08:04;98525.16;;;9.63;49.46
26531;BME280;14201;43.188;24.160;2024-01-15T10:10:30;98521.88;;;9.70;49.42
26531;BME280;14201;43.188;24.160;2024-01-15T10:12:58;98502.16;;;9.78;50.31
26531;BME280;14201;43.188;24.160;2024-01-15T10:15:27;98508.53;;;9.90;50.40
26531;BME280;14201;43.188;24.160;2024-01-15T10:17:54;98506.91;;;9.93;49.30
26531;BME280;14201;43.188;24.160;2024-01-15T10:20:20;98510.31;;;9.91;49.83
26531;BME280;14201;43.188;24.160;2024-01-15T10:22:48;98511.31;;;9.96;48.90
26531;BME280;14201;43.188;24.160;2024-01-15T10:25:14;98512.47;;;10.07;48.86
26531;BME280;14201;43.188;24.160;2024-01-15T10:27:43;98514.19;;;10.07;49.84
26531;BME280;14201;43.188;24.160;2024-01-15T10:30:09;98508.13;;;10.08;49.25
26531;BME280;14201;43.188;24.160;2024-01-15T10:32:36;98502.00;;;10.05;50.51
26531;BME280;14201;43.188;24.160;2024-01-15T10:35:03;98490.63;;;10.00;51.14
26531;BME280;14201;43.188;24.160;2024-01-15T10:37:33;98487.47;;;10.14;51.23
26531;BME280;14201;43.188;24.160;2024-01-15T10:40:03;98488.53;;;10.20;50.93
26531;BME280;14201;43.188;24.160;2024-01-15T10:42:31;98482.47;;;10.21;51.08
26531;BME280;14201;43.188;24.160;2024-01-15T10:44:57;98473.97;;;10.29;49.56
26531;BME280;14201;43.188;24.160;2024-01-15T10:47:23;98460.66;;;10.51;48.58
26531;BME280;14201;43.188;24.160;2024-01-15T10:49:49;98460.13;;;10.66;49.16
26531;BME280;14201;43.188;24.160;2024-01-15T10:52:15;98463.50;;;10.60;48.51
26531;BME280;14201;43.188;24.160;2024-01-15T10:54:41;98443.63;;;10.66;49.36
26531;BME280;14201;43.188;24.160;2024-01-15T10:57:09;98437.06;;;10.83;48.68
26531;BME280;14201;43.188;24.160;2024-01-15T10:59:36;98439.00;;;10.92;47.39
26531;BME280;14201;43.188;24.160;2024-01-15T11:02:02;98437.47;;;11.03;47.60
26531;BME280;14201;43.188;24.160;2024-01-15T11:04:28;98442.00;;;11.12;45.39
26531;BME280;14201;43.188;24.160;2024-01-15T11:06:57;98438.09;;;11.34;46.37
26531;BME280;14201;43.188;24.160;2024-01-15T11:09:23;98436.03;;;11.63;48.42
26531;BME280;14201;43.188;24.160;2024-01-15T11:11:53;98443.63;;;11.95;47.30
26531;BME280;14201;43.188;24.160;2024-01-15T11:15:02;98433.03;;;11.89;47.02
26531;BME280;14201;43.188;24.160;2024-01-15T11:17:59;98425.59;;;11.63;46.85
26531;BME280;14201;43.188;24.160;2024-01-15T11:20:30;98425.78;;;11.72;47.10
26531;BME280;14201;43.188;24.160;2024-01-15T11:22:58;98428.50;;;11.77;46.31
26531;BME280;14201;43.188;24.160;2024-01-15T11:25:34;98420.63;;;11.75;46.10
26531;BME280;14201;43.188;24.160;2024-01-15T11:28:00;98391.22;;;11.86;45.23
26531;BME280;14201;43.188;24.160;2024-01-15T11:30:26;98412.34;;;11.98;43.79
26531;BME280;14201;43.188;24.160;2024-01-15T11:32:52;98397.03;;;12.18;43.02
26531;BME280;14201;43.188;24.160;2024-01-15T11:35:18;98395.13;;;12.69;42.12
26531;BME280;14201;43.188;24.160;2024-01-15T11:43:02;98405.22;;;13.07;40.83
26531;BME280;14201;43.188;24.160;2024-01-15T11:45:30;98408.47;;;12.90;40.81
26531;BME280;14201;43.188;24.160;2024-01-15T11:48:15;98396.09;;;12.77;41.71
26531;BME280;14201;43.188;24.160;2024-01-15T11:50:45;98384.78;;;12.76;41.90
26531;BME280;14201;43.188;24.160;2024-01-15T11:55:45;98366.44;;;12.72;41.27
26531;BME280;14201;43.188;24.160;2024-01-15T11:58:11;98368.19;;;12.73;41.68
26531;BME280;14201;43.188;24.160;2024-01-15T12:00:42;98365.47;;;12.62;41.54
26531;BME280;14201;43.188;24.160;2024-01-15T12:03:09;98375.97;;;12.67;41.75
26531;BME280;14201;43.188;24.160;2024-01-15T12:05:37;98372.53;;;12.71;42.37
26531;BME280;14201;43.188;24.160;2024-01-15T12:08:03;98368.00;;;12.57;42.22
26531;BME280;14201;43.188;24.160;2024-01-15T12:10:29;98350.69;;;12.64;43.70
26531;BME280;14201;43.188;24.160;2024-01-15T12:15:28;98355.16;;;12.74;43.49
26531;BME280;14201;43.188;24.160;2024-01-15T12:17:56;98342.97;;;12.75;42.47
26531;BME280;14201;43.188;24.160;2024-01-15T12:20:30;98336.84;;;12.73;43.24
26531;BME280;14201;43.188;24.160;2024-01-15T12:22:56;98341.28;;;12.78;42.86
26531;BME280;14201;43.188;24.160;2024-01-15T12:25:22;98332.69;;;12.90;41.72
26531;BME280;14201;43.188;24.160;2024-01-15T12:27:49;98338.09;;;13.06;42.33
26531;BME280;14201;43.188;24.160;2024-01-15T12:30:14;98326.72;;;13.00;41.76
26531;BME280;14201;43.188;24.160;2024-01-15T12:32:44;98334.50;;;12.96;41.77
26531;BME280;14201;43.188;24.160;2024-01-15T12:35:10;98315.50;;;13.09;41.49
26531;BME280;14201;43.188;24.160;2024-01-15T12:37:37;98321.44;;;12.96;41.63
26531;BME280;14201;43.188;24.160;2024-01-15T12:40:04;98331.75;;;12.84;41.54
26531;BME280;14201;43.188;24.160;2024-01-15T12:42:41;98343.78;;;12.71;41.46
26531;BME280;14201;43.188;24.160;2024-01-15T12:45:09;98344.50;;;12.59;43.08
26531;BME280;14201;43.188;24.160;2024-01-15T12:47:36;98340.88;;;12.48;42.51
26531;BME280;14201;43.188;24.160;2024-01-15T12:50:02;98345.16;;;12.41;42.88
26531;BME280;14201;43.188;24.160;2024-01-15T12:52:29;98338.00;;;12.28;43.60
26531;BME280;14201;43.188;24.160;2024-01-15T12:54:55;98326.47;;;12.13;43.33
26531;BME280;14201;43.188;24.160;2024-01-15T12:57:21;98317.66;;;12.05;42.87
26531;BME280;14201;43.188;24.160;2024-01-15T12:59:47;98315.13;;;12.11;41.74
26531;BME280;14201;43.188;24.160;2024-01-15T13:02:13;98305.56;;;12.13;41.76